Portland, Iowa
Current Conditions -  °F | °C
As of 1:53 AM on Saturday 25 Oct 2014 (Local Time) from KMCW Reporting Station
Clear Clear  
Wind Chill: 44°   Ceiling: Unl
Heat Index: 49°   Visibility: 10mi
Dew Point: 44°   Wind: 12mph
Humidity: 83%   Direction: 280°W
Pressure: 29.99"   Gusts: NA
Location:  43.1451°N, 93.1385°W
Report Text: KMCW 250653Z AUTO 28010KT 10SM CLR 09/07 A2999 RMK AO2 SLP151 T00940067
Loading
Personal Weather Stations






























Interactive Weather Map
Tropical Storm Tracking
New forecast layout! Learn more

10-Day Weather Forecast

Advertisements
Track Severe Weather on mobile